Terminal Aerodrome Forecast
Issued by NWS

Home | Current Version | Previous Version | Text Only | Print | Product List | Glossary On
Versions: 1 2 3 4 5 6 7 8 9 10 11 12 13 14 15 16 17 18 19 20 21 22 23 24 25 26 27 28 29 30 31 32 33 34 35 36 37
000
FTUS43 KLOT 071154 AAA
TAFDPA
TAF AMD
KDPA 071154Z 0712/0812 01013KT 5SM BR BKN012 OVC020
      TEMPO 0712/0713 2SM -RA BR OVC008
     FM071700 03015G22KT P6SM SCT040 SCT100
     FM072300 03010KT P6SM SCT200
     FM080200 02007KT P6SM FEW250=

USA.gov is the U.S. government's official web portal to all federal, state and local government web resources and services.